sensor_id;sensor_type;location;lat;lon;timestamp;temperature;humidity
59703;DHT22;45570;48.782;8.332;2023-04-01T07:19:22;9.10;99.90
59703;DHT22;45570;48.782;8.332;2023-04-01T07:22:10;9.10;99.90
59703;DHT22;45570;48.782;8.332;2023-04-01T07:25:05;9.20;99.90
59703;DHT22;45570;48.782;8.332;2023-04-01T07:30:35;9.10;99.90
59703;DHT22;45570;48.782;8.332;2023-04-01T07:33:12;9.20;99.90
59703;DHT22;45570;48.782;8.332;2023-04-01T07:36:19;9.20;99.90
59703;DHT22;45570;48.782;8.332;2023-04-01T07:39:12;9.20;99.90
59703;DHT22;45570;48.782;8.332;2023-04-01T07:42:17;9.20;99.90
59703;DHT22;45570;48.782;8.332;2023-04-01T07:44:53;9.20;99.90
59703;DHT22;45570;48.782;8.332;2023-04-01T08:16:51;9.00;99.90
59703;DHT22;45570;48.782;8.332;2023-04-01T08:21:52;9.00;99.90
59703;DHT22;45570;48.782;8.332;2023-04-01T08:24:27;9.00;99.90
59703;DHT22;45570;48.782;8.332;2023-04-01T08:27:17;9.10;99.90
59703;DHT22;45570;48.782;8.332;2023-04-01T08:29:56;9.10;99.90
59703;DHT22;45570;48.782;8.332;2023-04-01T08:32:32;9.20;99.90
59703;DHT22;45570;48.782;8.332;2023-04-01T08:35:14;9.20;99.90
59703;DHT22;45570;48.782;8.332;2023-04-01T08:37:48;9.20;99.90
59703;DHT22;45570;48.782;8.332;2023-04-01T08:43:36;9.30;99.90
59703;DHT22;45570;48.782;8.332;2023-04-01T08:46:25;9.30;99.90
59703;DHT22;45570;48.782;8.332;2023-04-01T08:49:00;9.30;99.90
59703;DHT22;45570;48.782;8.332;2023-04-01T08:58:17;9.20;99.90
59703;DHT22;45570;48.782;8.332;2023-04-01T09:01:13;9.20;99.90
59703;DHT22;45570;48.782;8.332;2023-04-01T09:04:14;9.20;99.90
59703;DHT22;45570;48.782;8.332;2023-04-01T09:06:56;9.20;99.90
59703;DHT22;45570;48.782;8.332;2023-04-01T09:09:58;9.20;99.90
59703;DHT22;45570;48.782;8.332;2023-04-01T09:12:55;9.20;99.90
59703;DHT22;45570;48.782;8.332;2023-04-01T09:25:15;9.20;99.90
59703;DHT22;45570;48.782;8.332;2023-04-01T09:27:56;9.20;99.90
59703;DHT22;45570;48.782;8.332;2023-04-01T09:36:43;9.30;99.90
59703;DHT22;45570;48.782;8.332;2023-04-01T09:39:36;9.40;99.90
59703;DHT22;45570;48.782;8.332;2023-04-01T09:42:37;9.50;99.90
59703;DHT22;45570;48.782;8.332;2023-04-01T09:45:39;9.60;99.90
59703;DHT22;45570;48.782;8.332;2023-04-01T09:48:19;9.70;99.90
59703;DHT22;45570;48.782;8.332;2023-04-01T09:50:56;9.80;99.90
59703;DHT22;45570;48.782;8.332;2023-04-01T09:53:41;10.00;99.90
59703;DHT22;45570;48.782;8.332;2023-04-01T09:56:41;10.20;99.90
59703;DHT22;45570;48.782;8.332;2023-04-01T09:59:47;10.40;99.90
59703;DHT22;45570;48.782;8.332;2023-04-01T10:06:11;10.20;99.90
59703;DHT22;45570;48.782;8.332;2023-04-01T10:09:01;10.20;99.90
59703;DHT22;45570;48.782;8.332;2023-04-01T10:15:08;10.20;99.90
59703;DHT22;45570;48.782;8.332;2023-04-01T10:21:13;10.40;99.90
59703;DHT22;45570;48.782;8.332;2023-04-01T10:24:10;10.40;99.90
59703;DHT22;45570;48.782;8.332;2023-04-01T10:36:52;10.60;99.90
59703;DHT22;45570;48.782;8.332;2023-04-01T10:39:53;10.50;99.90
59703;DHT22;45570;48.782;8.332;2023-04-01T10:43:15;10.40;99.90
59703;DHT22;45570;48.782;8.332;2023-04-01T10:52:39;10.70;99.90
59703;DHT22;45570;48.782;8.332;2023-04-01T10:55:52;10.80;99.90
59703;DHT22;45570;48.782;8.332;2023-04-01T10:59:13;10.80;99.90
59703;DHT22;45570;48.782;8.332;2023-04-01T11:12:19;10.60;99.90
59703;DHT22;45570;48.782;8.332;2023-04-01T11:18:32;10.70;99.90
59703;DHT22;45570;48.782;8.332;2023-04-01T11:27:41;10.30;99.90
59703;DHT22;45570;48.782;8.332;2023-04-01T11:30:22;10.20;99.90
59703;DHT22;45570;48.782;8.332;2023-04-01T11:33:02;10.10;99.90
59703;DHT22;45570;48.782;8.332;2023-04-01T11:35:55;10.10;99.90
59703;DHT22;45570;48.782;8.332;2023-04-01T11:38:53;10.10;99.90
59703;DHT22;45570;48.782;8.332;2023-04-01T11:41:48;10.10;99.90
59703;DHT22;45570;48.782;8.332;2023-04-01T11:44:42;10.30;99.90
59703;DHT22;45570;48.782;8.332;2023-04-01T11:47:42;10.50;99.90
59703;DHT22;45570;48.782;8.332;2023-04-01T11:50:23;10.60;99.90
59703;DHT22;45570;48.782;8.332;2023-04-01T11:53:02;10.60;99.90
59703;DHT22;45570;48.782;8.332;2023-04-01T11:55:42;10.60;99.90
59703;DHT22;45570;48.782;8.332;2023-04-01T12:01:20;10.30;99.90
59703;DHT22;45570;48.782;8.332;2023-04-01T12:07:10;10.20;99.90
59703;DHT22;45570;48.782;8.332;2023-04-01T12:09:49;10.10;99.90
59703;DHT22;45570;48.782;8.332;2023-04-01T12:12:29;10.10;99.90
59703;DHT22;45570;48.782;8.332;2023-04-01T12:15:16;10.10;99.90
59703;DHT22;45570;48.782;8.332;2023-04-01T12:17:54;10.00;99.90
59703;DHT22;45570;48.782;8.332;2023-04-01T12:20:36;10.00;99.90
59703;DHT22;45570;48.782;8.332;2023-04-01T12:23:22;10.00;99.90
59703;DHT22;45570;48.782;8.332;2023-04-01T12:26:15;9.90;99.90
59703;DHT22;45570;48.782;8.332;2023-04-01T12:29:07;9.90;99.90
59703;DHT22;45570;48.782;8.332;2023-04-01T12:31:43;9.90;99.90
59703;DHT22;45570;48.782;8.332;2023-04-01T12:37:29;9.90;99.90
59703;DHT22;45570;48.782;8.332;2023-04-01T12:40:20;10.00;99.90
59703;DHT22;45570;48.782;8.332;2023-04-01T12:43:04;10.00;99.90
59703;DHT22;45570;48.782;8.332;2023-04-01T12:45:40;10.00;99.90
59703;DHT22;45570;48.782;8.332;2023-04-01T12:48:27;10.10;99.90
59703;DHT22;45570;48.782;8.332;2023-04-01T12:51:23;10.10;99.90
59703;DHT22;45570;48.782;8.332;2023-04-01T12:57:14;10.10;99.90
59703;DHT22;45570;48.782;8.332;2023-04-01T13:00:09;10.10;99.90
59703;DHT22;45570;48.782;8.332;2023-04-01T13:02:55;10.10;99.90
59703;DHT22;45570;48.782;8.332;2023-04-01T13:06:01;10.00;99.90
59703;DHT22;45570;48.782;8.332;2023-04-01T13:08:43;9.90;99.90
59703;DHT22;45570;48.782;8.332;2023-04-01T13:11:20;10.00;99.90
59703;DHT22;45570;48.782;8.332;2023-04-01T13:14:16;9.90;99.90
59703;DHT22;45570;48.782;8.332;2023-04-01T13:17:01;9.90;99.90
59703;DHT22;45570;48.782;8.332;2023-04-01T13:19:38;9.80;99.90
59703;DHT22;45570;48.782;8.332;2023-04-01T13:22:23;9.80;99.90
59703;DHT22;45570;48.782;8.332;2023-04-01T13:24:59;9.80;99.90
59703;DHT22;45570;48.782;8.332;2023-04-01T13:27:35;9.80;99.90
59703;DHT22;45570;48.782;8.332;2023-04-01T13:30:21;9.80;99.90
59703;DHT22;45570;48.782;8.332;2023-04-01T13:32:58;9.90;99.90
59703;DHT22;45570;48.782;8.332;2023-04-01T13:35:38;10.00;99.90
59703;DHT22;45570;48.782;8.332;2023-04-01T13:41:17;10.00;99.90
59703;DHT22;45570;48.782;8.332;2023-04-01T13:43:57;10.00;99.90
59703;DHT22;45570;48.782;8.332;2023-04-01T13:46:45;10.00;99.90
59703;DHT22;45570;48.782;8.332;2023-04-01T13:49:33;10.00;99.90
59703;DHT22;45570;48.782;8.332;2023-04-01T13:55:49;10.10;99.90
59703;DHT22;45570;48.782;8.332;2023-04-01T13:59:03;10.10;99.90
59703;DHT22;45570;48.782;8.332;2023-04-01T14:01:39;10.10;99.90
59703;DHT22;45570;48.782;8.332;2023-04-01T14:04:34;10.10;99.90
59703;DHT22;45570;48.782;8.332;2023-04-01T14:07:15;10.10;99.90
59703;DHT22;45570;48.782;8.332;2023-04-01T14:09:54;10.10;99.90
59703;DHT22;45570;48.782;8.332;2023-04-01T14:12:31;10.10;99.90
59703;DHT22;45570;48.782;8.332;2023-04-01T14:15:29;10.20;99.90
59703;DHT22;45570;48.782;8.332;2023-04-01T14:18:11;10.20;99.90
59703;DHT22;45570;48.782;8.332;2023-04-01T14:20:51;10.20;99.90
59703;DHT22;45570;48.782;8.332;2023-04-01T14:29:35;10.40;99.90
59703;DHT22;45570;48.782;8.332;2023-04-01T14:32:13;10.30;99.90
59703;DHT22;45570;48.782;8.332;2023-04-01T14:34:55;10.30;99.90
59703;DHT22;45570;48.782;8.332;2023-04-01T14:37:55;10.30;99.90
59703;DHT22;45570;48.782;8.332;2023-04-01T14:40:27;10.30;99.90
59703;DHT22;45570;48.782;8.332;2023-04-01T14:43:10;10.30;99.90
59703;DHT22;45570;48.782;8.332;2023-04-01T14:46:08;10.30;99.90
59703;DHT22;45570;48.782;8.332;2023-04-01T14:48:50;10.40;99.90
59703;DHT22;45570;48.782;8.332;2023-04-01T14:51:29;10.40;99.90
59703;DHT22;45570;48.782;8.332;2023-04-01T14:54:12;10.40;99.90
59703;DHT22;45570;48.782;8.332;2023-04-01T14:56:47;10.30;99.90
59703;DHT22;45570;48.782;8.332;2023-04-01T14:59:26;10.30;99.90
59703;DHT22;45570;48.782;8.332;2023-04-01T15:02:01;10.20;99.90
59703;DHT22;45570;48.782;8.332;2023-04-01T15:04:47;10.20;99.90
59703;DHT22;45570;48.782;8.332;2023-04-01T15:13:41;10.10;99.90
59703;DHT22;45570;48.782;8.332;2023-04-01T15:16:21;10.00;99.90
59703;DHT22;45570;48.782;8.332;2023-04-01T15:19:00;10.10;99.90
59703;DHT22;45570;48.782;8.332;2023-04-01T15:21:48;10.00;99.90
59703;DHT22;45570;48.782;8.332;2023-04-01T15:24:22;10.00;99.90
59703;DHT22;45570;48.782;8.332;2023-04-01T15:27:12;10.00;99.90
59703;DHT22;45570;48.782;8.332;2023-04-01T15:32:49;10.00;99.90
59703;DHT22;45570;48.782;8.332;2023-04-01T15:35:30;10.10;99.90
59703;DHT22;45570;48.782;8.332;2023-04-01T15:38:10;10.10;99.90
59703;DHT22;45570;48.782;8.332;2023-04-01T15:40:49;10.00;99.90
59703;DHT22;45570;48.782;8.332;2023-04-01T15:43:30;10.00;99.90
59703;DHT22;45570;48.782;8.332;2023-04-01T15:46:15;10.00;99.90
59703;DHT22;45570;48.782;8.332;2023-04-01T15:48:58;10.10;99.90
59703;DHT22;45570;48.782;8.332;2023-04-01T15:51:47;10.10;99.90
59703;DHT22;45570;48.782;8.332;2023-04-01T15:54:37;10.20;99.90
59703;DHT22;45570;48.782;8.332;2023-04-01T15:57:20;10.20;99.90
59703;DHT22;45570;48.782;8.332;2023-04-01T16:00:06;10.30;99.90
59703;DHT22;45570;48.782;8.332;2023-04-01T16:02:46;10.30;99.90
59703;DHT22;45570;48.782;8.332;2023-04-01T16:05:35;10.30;99.90
59703;DHT22;45570;48.782;8.332;2023-04-01T16:11:20;10.40;99.90
59703;DHT22;45570;48.782;8.332;2023-04-01T16:14:04;10.40;99.90
59703;DHT22;45570;48.782;8.332;2023-04-01T16:16:48;10.30;99.90
59703;DHT22;45570;48.782;8.332;2023-04-01T16:19:33;10.20;99.90
59703;DHT22;45570;48.782;8.332;2023-04-01T16:22:08;10.20;99.90
59703;DHT22;45570;48.782;8.332;2023-04-01T16:24:44;10.20;99.90
59703;DHT22;45570;48.782;8.332;2023-04-01T16:27:23;10.20;99.90
59703;DHT22;45570;48.782;8.332;2023-04-01T16:29:57;10.30;99.90
59703;DHT22;45570;48.782;8.332;2023-04-01T16:32:36;10.30;99.90
59703;DHT22;45570;48.782;8.332;2023-04-01T16:35:33;10.20;99.90
59703;DHT22;45570;48.782;8.332;2023-04-01T16:38:12;10.10;99.90
59703;DHT22;45570;48.782;8.332;2023-04-01T16:40:47;10.10;99.90
59703;DHT22;45570;48.782;8.332;2023-04-01T16:43:26;10.00;99.90
59703;DHT22;45570;48.782;8.332;2023-04-01T16:49:04;10.00;99.90
59703;DHT22;45570;48.782;8.332;2023-04-01T16:51:44;9.90;99.90
59703;DHT22;45570;48.782;8.332;2023-04-01T16:54:25;9.80;99.90
59703;DHT22;45570;48.782;8.332;2023-04-01T16:57:03;9.90;99.90
59703;DHT22;45570;48.782;8.332;2023-04-01T16:59:37;10.00;99.90
59703;DHT22;45570;48.782;8.332;2023-04-01T17:02:12;9.80;99.90
59703;DHT22;45570;48.782;8.332;2023-04-01T17:04:45;9.90;99.90
59703;DHT22;45570;48.782;8.332;2023-04-01T17:07:32;9.70;99.90
59703;DHT22;45570;48.782;8.332;2023-04-01T17:10:24;9.60;99.90
59703;DHT22;45570;48.782;8.332;2023-04-01T17:13:10;9.50;99.90
59703;DHT22;45570;48.782;8.332;2023-04-01T17:15:50;9.40;99.90
59703;DHT22;45570;48.782;8.332;2023-04-01T17:18:26;9.40;99.90
59703;DHT22;45570;48.782;8.332;2023-04-01T17:20:56;9.30;99.90
59703;DHT22;45570;48.782;8.332;2023-04-01T17:23:32;9.20;99.90
59703;DHT22;45570;48.782;8.332;2023-04-01T17:26:06;9.20;99.90
59703;DHT22;45570;48.782;8.332;2023-04-01T17:28:44;9.20;99.90
59703;DHT22;45570;48.782;8.332;2023-04-01T17:31:26;9.20;99.90
59703;DHT22;45570;48.782;8.332;2023-04-01T17:37:20;9.00;99.90
59703;DHT22;45570;48.782;8.332;2023-04-01T17:40:00;9.00;99.90
59703;DHT22;45570;48.782;8.332;2023-04-01T17:42:36;9.00;99.90
59703;DHT22;45570;48.782;8.332;2023-04-01T17:45:20;9.00;99.90
59703;DHT22;45570;48.782;8.332;2023-04-01T17:48:00;8.90;99.90
59703;DHT22;45570;48.782;8.332;2023-04-01T17:50:47;9.00;99.90
59703;DHT22;45570;48.782;8.332;2023-04-01T17:53:27;9.10;99.90
59703;DHT22;45570;48.782;8.332;2023-04-01T17:56:08;9.10;99.90
59703;DHT22;45570;48.782;8.332;2023-04-01T17:58:45;9.10;99.90
59703;DHT22;45570;48.782;8.332;2023-04-01T18:01:24;8.90;99.90
59703;DHT22;45570;48.782;8.332;2023-04-01T18:07:07;8.70;99.90
59703;DHT22;45570;48.782;8.332;2023-04-01T18:09:45;8.60;99.90
59703;DHT22;45570;48.782;8.332;2023-04-01T18:12:28;8.50;99.90
59703;DHT22;45570;48.782;8.332;2023-04-01T18:15:08;8.50;99.90
59703;DHT22;45570;48.782;8.332;2023-04-01T18:17:55;8.50;99.90
59703;DHT22;45570;48.782;8.332;2023-04-01T18:20:37;8.40;99.90
59703;DHT22;45570;48.782;8.332;2023-04-01T18:23:13;8.40;99.90
59703;DHT22;45570;48.782;8.332;2023-04-01T18:25:47;8.40;99.90
59703;DHT22;45570;48.782;8.332;2023-04-01T18:28:25;8.50;99.90
59703;DHT22;45570;48.782;8.332;2023-04-01T18:30:58;8.50;99.90
59703;DHT22;45570;48.782;8.332;2023-04-01T18:33:41;8.50;99.90
59703;DHT22;45570;48.782;8.332;2023-04-01T18:36:19;8.40;99.90
59703;DHT22;45570;48.782;8.332;2023-04-01T18:38:52;8.50;99.90
59703;DHT22;45570;48.782;8.332;2023-04-01T18:41:30;8.60;99.90
59703;DHT22;45570;48.782;8.332;2023-04-01T18:44:22;8.60;99.90
59703;DHT22;45570;48.782;8.332;2023-04-01T18:46:59;8.70;99.90
59703;DHT22;45570;48.782;8.332;2023-04-01T18:49:41;8.60;99.90
59703;DHT22;45570;48.782;8.332;2023-04-01T18:52:19;8.60;99.90
59703;DHT22;45570;48.782;8.332;2023-04-01T18:55:24;8.60;99.90
59703;DHT22;45570;48.782;8.332;2023-04-01T18:58:11;8.60;99.90
59703;DHT22;45570;48.782;8.332;2023-04-01T19:00:46;8.70;99.90
59703;DHT22;45570;48.782;8.332;2023-04-01T19:03:21;8.70;99.90
59703;DHT22;45570;48.782;8.332;2023-04-01T19:05:52;8.60;99.90
59703;DHT22;45570;48.782;8.332;2023-04-01T19:08:34;8.60;99.90
59703;DHT22;45570;48.782;8.332;2023-04-01T19:11:09;8.50;99.90
59703;DHT22;45570;48.782;8.332;2023-04-01T19:13:46;8.40;99.90
59703;DHT22;45570;48.782;8.332;2023-04-01T19:16:26;8.50;99.90
59703;DHT22;45570;48.782;8.332;2023-04-01T19:19:19;8.60;99.90
59703;DHT22;45570;48.782;8.332;2023-04-01T19:21:56;8.70;99.90
59703;DHT22;45570;48.782;8.332;2023-04-01T19:24:53;8.70;99.90
59703;DHT22;45570;48.782;8.332;2023-04-01T19:27:32;8.60;99.90
59703;DHT22;45570;48.782;8.332;2023-04-01T19:30:27;8.60;99.90
59703;DHT22;45570;48.782;8.332;2023-04-01T19:33:15;8.60;99.90
59703;DHT22;45570;48.782;8.332;2023-04-01T19:35:53;8.70;99.90
59703;DHT22;45570;48.782;8.332;2023-04-01T19:38:30;8.80;99.90
59703;DHT22;45570;48.782;8.332;2023-04-01T19:41:14;8.90;99.90
59703;DHT22;45570;48.782;8.332;2023-04-01T19:43:55;9.00;99.90
59703;DHT22;45570;48.782;8.332;2023-04-01T19:46:32;9.00;99.90
59703;DHT22;45570;48.782;8.332;2023-04-01T19:49:10;9.00;99.90
59703;DHT22;45570;48.782;8.332;2023-04-01T19:51:50;9.10;99.90
59703;DHT22;45570;48.782;8.332;2023-04-01T19:54:28;9.10;99.90
59703;DHT22;45570;48.782;8.332;2023-04-01T19:57:09;9.10;99.90
59703;DHT22;45570;48.782;8.332;2023-04-01T19:59:47;9.00;99.90
59703;DHT22;45570;48.782;8.332;2023-04-01T20:02:36;9.10;99.90
59703;DHT22;45570;48.782;8.332;2023-04-01T20:05:28;9.00;99.90
59703;DHT22;45570;48.782;8.332;2023-04-01T20:08:05;9.10;99.90
59703;DHT22;45570;48.782;8.332;2023-04-01T20:10:41;9.00;99.90
59703;DHT22;45570;48.782;8.332;2023-04-01T20:13:19;9.00;99.90
59703;DHT22;45570;48.782;8.332;2023-04-01T20:16:00;8.90;99.90
59703;DHT22;45570;48.782;8.332;2023-04-01T20:18:40;8.90;99.90
59703;DHT22;45570;48.782;8.332;2023-04-01T20:21:24;8.80;99.90
59703;DHT22;45570;48.782;8.332;2023-04-01T20:23:58;8.70;99.90
59703;DHT22;45570;48.782;8.332;2023-04-01T20:26:33;8.80;99.90
59703;DHT22;45570;48.782;8.332;2023-04-01T20:29:39;8.80;99.90
59703;DHT22;45570;48.782;8.332;2023-04-01T20:32:22;8.70;99.90
59703;DHT22;45570;48.782;8.332;2023-04-01T20:35:23;8.70;99.90
59703;DHT22;45570;48.782;8.332;2023-04-01T20:38:03;8.80;99.90
59703;DHT22;45570;48.782;8.332;2023-04-01T20:40:36;8.80;99.90
59703;DHT22;45570;48.782;8.332;2023-04-01T20:43:32;8.80;99.90
59703;DHT22;45570;48.782;8.332;2023-04-01T20:46:11;8.80;99.90
59703;DHT22;45570;48.782;8.332;2023-04-01T20:51:57;8.70;99.90
59703;DHT22;45570;48.782;8.332;2023-04-01T20:54:47;8.60;99.90
59703;DHT22;45570;48.782;8.332;2023-04-01T20:57:25;8.40;99.90
59703;DHT22;45570;48.782;8.332;2023-04-01T21:00:20;8.40;99.90
59703;DHT22;45570;48.782;8.332;2023-04-01T21:03:12;8.40;99.90
59703;DHT22;45570;48.782;8.332;2023-04-01T21:09:11;8.40;99.90
59703;DHT22;45570;48.782;8.332;2023-04-01T21:11:51;8.50;99.90
59703;DHT22;45570;48.782;8.332;2023-04-01T21:14:57;8.60;99.90
59703;DHT22;45570;48.782;8.332;2023-04-01T21:17:38;8.70;99.90
59703;DHT22;45570;48.782;8.332;2023-04-01T21:20:30;8.70;99.90
59703;DHT22;45570;48.782;8.332;2023-04-01T21:23:28;8.60;99.90
59703;DHT22;45570;48.782;8.332;2023-04-01T21:26:08;8.60;99.90
59703;DHT22;45570;48.782;8.332;2023-04-01T21:28:52;8.70;99.90
59703;DHT22;45570;48.782;8.332;2023-04-01T21:31:38;8.90;99.90
59703;DHT22;45570;48.782;8.332;2023-04-01T21:34:35;8.90;99.90
59703;DHT22;45570;48.782;8.332;2023-04-01T21:37:37;8.90;99.90
59703;DHT22;45570;48.782;8.332;2023-04-01T21:43:49;8.80;99.90
59703;DHT22;45570;48.782;8.332;2023-04-01T21:53:07;8.80;99.90
59703;DHT22;45570;48.782;8.332;2023-04-01T22:05:12;8.60;99.90
59703;DHT22;45570;48.782;8.332;2023-04-01T22:07:51;8.70;99.90
59703;DHT22;45570;48.782;8.332;2023-04-01T22:10:29;8.60;99.90
59703;DHT22;45570;48.782;8.332;2023-04-01T22:13:04;8.60;99.90
59703;DHT22;45570;48.782;8.332;2023-04-01T22:15:56;8.60;99.90
59703;DHT22;45570;48.782;8.332;2023-04-01T22:18:31;8.60;99.90
59703;DHT22;45570;48.782;8.332;2023-04-01T22:21:09;8.50;99.90
59703;DHT22;45570;48.782;8.332;2023-04-01T22:23:46;8.40;99.90
59703;DHT22;45570;48.782;8.332;2023-04-01T22:26:19;8.70;99.90
59703;DHT22;45570;48.782;8.332;2023-04-01T22:28:55;8.80;99.90
59703;DHT22;45570;48.782;8.332;2023-04-01T22:31:30;8.70;99.90
59703;DHT22;45570;48.782;8.332;2023-04-01T22:34:06;8.70;99.90
59703;DHT22;45570;48.782;8.332;2023-04-01T22:36:44;8.60;99.90
59703;DHT22;45570;48.782;8.332;2023-04-01T22:39:40;8.60;99.90
59703;DHT22;45570;48.782;8.332;2023-04-01T22:42:26;8.60;99.90
59703;DHT22;45570;48.782;8.332;2023-04-01T22:45:06;8.60;99.90
59703;DHT22;45570;48.782;8.332;2023-04-01T22:47:43;8.50;99.90
59703;DHT22;45570;48.782;8.332;2023-04-01T22:50:19;8.40;99.90
59703;DHT22;45570;48.782;8.332;2023-04-01T22:52:56;8.50;99.90
59703;DHT22;45570;48.782;8.332;2023-04-01T22:55:34;8.50;99.90
59703;DHT22;45570;48.782;8.332;2023-04-01T22:58:24;8.50;99.90
59703;DHT22;45570;48.782;8.332;2023-04-01T23:00:56;8.50;99.90
59703;DHT22;45570;48.782;8.332;2023-04-01T23:03:29;8.40;99.90
59703;DHT22;45570;48.782;8.332;2023-04-01T23:06:00;8.40;99.90
59703;DHT22;45570;48.782;8.332;2023-04-01T23:11:35;8.40;99.90
59703;DHT22;45570;48.782;8.332;2023-04-01T23:14:35;8.40;99.90
59703;DHT22;45570;48.782;8.332;2023-04-01T23:20:14;8.40;99.90
59703;DHT22;45570;48.782;8.332;2023-04-01T23:22:50;8.40;99.90
59703;DHT22;45570;48.782;8.332;2023-04-01T23:25:30;8.40;99.90
59703;DHT22;45570;48.782;8.332;2023-04-01T23:28:24;8.50;99.90
59703;DHT22;45570;48.782;8.332;2023-04-01T23:30:55;8.50;99.90
59703;DHT22;45570;48.782;8.332;2023-04-01T23:33:27;8.50;99.90
59703;DHT22;45570;48.782;8.332;2023-04-01T23:35:59;8.60;99.90
59703;DHT22;45570;48.782;8.332;2023-04-01T23:38:33;8.70;99.90
59703;DHT22;45570;48.782;8.332;2023-04-01T23:41:03;8.80;99.90
59703;DHT22;45570;48.782;8.332;2023-04-01T23:43:37;8.70;99.90
59703;DHT22;45570;48.782;8.332;2023-04-01T23:46:07;8.70;99.90
59703;DHT22;45570;48.782;8.332;2023-04-01T23:48:39;8.80;99.90
59703;DHT22;45570;48.782;8.332;2023-04-01T23:51:14;8.90;99.90
59703;DHT22;45570;48.782;8.332;2023-04-01T23:53:46;8.90;99.90
59703;DHT22;45570;48.782;8.332;2023-04-01T23:56:17;8.80;99.90
59703;DHT22;45570;48.782;8.332;2023-04-01T23:58:49;8.70;99.90
